HI1077 MDJB-MDJB
Flight info
| Callsign | HI1077 |
|---|---|
| Flight time | 0h 10m |
| Altitude | 4000 |
| Route | MDSI DCT EMULU DCT KERSO DCT APGET |
| Aircraft | A119/L-SFG/C |
Departure
| Time | 2026-05-04 19:12 |
|---|---|
| Airport | La Isabela International Airport (MDJB) |
Arrival
| Time | 2026-05-04 19:23 |
|---|---|
| Airport | La Isabela International Airport (MDJB) |
| Time | Latitude | Longitude | Altitude | Speed | Heading |
|---|---|---|---|---|---|
| 2026-05-04 18:23 | 17.81864 | -71.63211 | 6 ft | 0 kts | 236° |
| 2026-05-04 18:24 | 17.81864 | -71.63208 | 10 ft | 4 kts | 244° |
| 2026-05-04 18:24 | 17.81992 | -71.63271 | 93 ft | 58 kts | 36° |
| 2026-05-04 18:24 | 17.82394 | -71.62957 | 259 ft | 87 kts | 56° |
| 2026-05-04 18:25 | 17.82863 | -71.62419 | 582 ft | 109 kts | 47° |
| 2026-05-04 18:25 | 17.83545 | -71.61961 | 754 ft | 118 kts | 35° |
| 2026-05-04 18:25 | 17.84161 | -71.61457 | 978 ft | 111 kts | 62° |
| 2026-05-04 18:25 | 17.84526 | -71.60771 | 1344 ft | 102 kts | 66° |
| 2026-05-04 18:26 | 17.84889 | -71.60088 | 1697 ft | 112 kts | 65° |
| 2026-05-04 18:26 | 17.85255 | -71.59355 | 1948 ft | 117 kts | 69° |
| 2026-05-04 18:26 | 17.85542 | -71.58759 | 2550 ft | 57 kts | 68° |
| 2026-05-04 18:26 | 17.85694 | -71.58433 | 3045 ft | 46 kts | 77° |
| 2026-05-04 18:27 | 17.85893 | -71.58137 | 3433 ft | 54 kts | 71° |
| 2026-05-04 18:27 | 17.86123 | -71.57742 | 3759 ft | 73 kts | 71° |
| 2026-05-04 18:27 | 17.86398 | -71.57213 | 4002 ft | 91 kts | 71° |
| 2026-05-04 18:27 | 17.86703 | -71.56590 | 4211 ft | 100 kts | 71° |
| 2026-05-04 18:28 | 17.87019 | -71.55931 | 4430 ft | 101 kts | 71° |
| 2026-05-04 18:28 | 17.87337 | -71.55273 | 4665 ft | 101 kts | 71° |
| 2026-05-04 18:28 | 17.87656 | -71.54623 | 4909 ft | 99 kts | 71° |
| 2026-05-04 18:28 | 17.87975 | -71.53985 | 5158 ft | 98 kts | 71° |
| 2026-05-04 18:29 | 17.88290 | -71.53364 | 5402 ft | 96 kts | 71° |
| 2026-05-04 18:29 | 17.88605 | -71.52750 | 5651 ft | 95 kts | 71° |
| 2026-05-04 18:29 | 17.88916 | -71.52148 | 5900 ft | 93 kts | 71° |
| 2026-05-04 18:29 | 17.89224 | -71.51555 | 6150 ft | 92 kts | 71° |
| 2026-05-04 18:30 | 17.89828 | -71.50394 | 6648 ft | 89 kts | 71° |
| 2026-05-04 18:30 | 17.90126 | -71.49824 | 6894 ft | 89 kts | 71° |
| 2026-05-04 18:30 | 17.90433 | -71.49222 | 7040 ft | 99 kts | 71° |
| 2026-05-04 18:31 | 17.90764 | -71.48535 | 7039 ft | 110 kts | 71° |
| 2026-05-04 18:31 | 17.91107 | -71.47797 | 6989 ft | 113 kts | 71° |
| 2026-05-04 18:31 | 17.91451 | -71.47053 | 6974 ft | 112 kts | 71° |
| 2026-05-04 18:31 | 17.91789 | -71.46330 | 6990 ft | 111 kts | 71° |
| 2026-05-04 18:32 | 17.92078 | -71.45581 | 7004 ft | 113 kts | 74° |
| 2026-05-04 18:32 | 17.92352 | -71.44845 | 6968 ft | 109 kts | 72° |
| 2026-05-04 18:32 | 17.92649 | -71.44120 | 6991 ft | 107 kts | 71° |
| 2026-05-04 18:32 | 17.92726 | -71.43934 | 6999 ft | 107 kts | 71° |
| 2026-05-04 18:33 | 17.92889 | -71.43543 | 6984 ft | 108 kts | 72° |
| 2026-05-04 18:33 | 17.93169 | -71.42879 | 7013 ft | 107 kts | 71° |
| 2026-05-04 18:33 | 17.93528 | -71.42186 | 7031 ft | 109 kts | 63° |
| 2026-05-04 18:33 | 17.93952 | -71.41517 | 7034 ft | 111 kts | 62° |
| 2026-05-04 18:34 | 17.94383 | -71.40843 | 7029 ft | 111 kts | 62° |
| 2026-05-04 18:34 | 17.94816 | -71.40170 | 7026 ft | 111 kts | 61° |
| 2026-05-04 18:34 | 17.95247 | -71.39499 | 7026 ft | 111 kts | 61° |
| 2026-05-04 18:34 | 17.95678 | -71.38829 | 7027 ft | 111 kts | 61° |
| 2026-05-04 18:35 | 17.96111 | -71.38157 | 7028 ft | 111 kts | 61° |
| 2026-05-04 18:35 | 17.96542 | -71.37485 | 7028 ft | 111 kts | 61° |
| 2026-05-04 18:35 | 17.96969 | -71.36822 | 7028 ft | 111 kts | 61° |
| 2026-05-04 18:35 | 17.97401 | -71.36152 | 7028 ft | 111 kts | 61° |
| 2026-05-04 18:36 | 17.97833 | -71.35480 | 7028 ft | 111 kts | 61° |
| 2026-05-04 18:36 | 17.98265 | -71.34808 | 7028 ft | 111 kts | 61° |
| 2026-05-04 18:36 | 17.98696 | -71.34138 | 7028 ft | 111 kts | 61° |
| 2026-05-04 18:36 | 17.99129 | -71.33465 | 7028 ft | 111 kts | 61° |
| 2026-05-04 18:37 | 17.99562 | -71.32792 | 7028 ft | 111 kts | 61° |
| 2026-05-04 18:37 | 17.99994 | -71.32121 | 7028 ft | 111 kts | 61° |
| 2026-05-04 18:37 | 18.00426 | -71.31449 | 7028 ft | 111 kts | 61° |
| 2026-05-04 18:37 | 18.00859 | -71.30776 | 7028 ft | 111 kts | 61° |
| 2026-05-04 18:38 | 18.01287 | -71.30112 | 7028 ft | 111 kts | 61° |
| 2026-05-04 18:38 | 18.01720 | -71.29439 | 7028 ft | 111 kts | 61° |
| 2026-05-04 18:38 | 18.02153 | -71.28766 | 7028 ft | 111 kts | 61° |
| 2026-05-04 18:38 | 18.02586 | -71.28094 | 7028 ft | 111 kts | 61° |
| 2026-05-04 18:39 | 18.03019 | -71.27420 | 7028 ft | 111 kts | 61° |
| 2026-05-04 18:39 | 18.03452 | -71.26749 | 7028 ft | 111 kts | 61° |
| 2026-05-04 18:39 | 18.03886 | -71.26075 | 7028 ft | 111 kts | 61° |
| 2026-05-04 18:39 | 18.04320 | -71.25401 | 7028 ft | 111 kts | 61° |
| 2026-05-04 18:40 | 18.04748 | -71.24736 | 7028 ft | 111 kts | 61° |
| 2026-05-04 18:40 | 18.05181 | -71.24063 | 7028 ft | 111 kts | 61° |
| 2026-05-04 18:40 | 18.05615 | -71.23390 | 7028 ft | 111 kts | 61° |
| 2026-05-04 18:40 | 18.06048 | -71.22718 | 7028 ft | 111 kts | 61° |
| 2026-05-04 18:41 | 18.06482 | -71.22044 | 7028 ft | 111 kts | 61° |
| 2026-05-04 18:41 | 18.06915 | -71.21371 | 7028 ft | 111 kts | 61° |
| 2026-05-04 18:41 | 18.07349 | -71.20698 | 7028 ft | 111 kts | 61° |
| 2026-05-04 18:41 | 18.07782 | -71.20026 | 7028 ft | 111 kts | 61° |
| 2026-05-04 18:42 | 18.08215 | -71.19353 | 7028 ft | 111 kts | 61° |
| 2026-05-04 18:42 | 18.08649 | -71.18681 | 7028 ft | 111 kts | 61° |
| 2026-05-04 18:42 | 18.09084 | -71.18005 | 7028 ft | 111 kts | 61° |
| 2026-05-04 18:42 | 18.09518 | -71.17332 | 7028 ft | 111 kts | 61° |
| 2026-05-04 18:43 | 18.09952 | -71.16659 | 7028 ft | 111 kts | 61° |
| 2026-05-04 18:43 | 18.10385 | -71.15987 | 7028 ft | 111 kts | 61° |
| 2026-05-04 18:43 | 18.10821 | -71.15311 | 7028 ft | 111 kts | 61° |
| 2026-05-04 18:43 | 18.11255 | -71.14638 | 7028 ft | 111 kts | 61° |
| 2026-05-04 18:44 | 18.11690 | -71.13963 | 7028 ft | 111 kts | 61° |
| 2026-05-04 18:44 | 18.11977 | -71.13518 | 7028 ft | 111 kts | 61° |
| 2026-05-04 18:44 | 18.12553 | -71.12624 | 7028 ft | 111 kts | 61° |
| 2026-05-04 18:44 | 18.12987 | -71.11951 | 7028 ft | 111 kts | 61° |
| 2026-05-04 18:45 | 18.13422 | -71.11276 | 7028 ft | 111 kts | 61° |
| 2026-05-04 18:45 | 18.13856 | -71.10603 | 7028 ft | 111 kts | 61° |
| 2026-05-04 18:45 | 18.14292 | -71.09928 | 7028 ft | 111 kts | 61° |
| 2026-05-04 18:45 | 18.14727 | -71.09253 | 7028 ft | 111 kts | 61° |
| 2026-05-04 18:46 | 18.15162 | -71.08579 | 7028 ft | 111 kts | 61° |
| 2026-05-04 18:46 | 18.15598 | -71.07903 | 7028 ft | 111 kts | 61° |
| 2026-05-04 18:46 | 18.16034 | -71.07228 | 7028 ft | 111 kts | 61° |
| 2026-05-04 18:46 | 18.16470 | -71.06552 | 7028 ft | 111 kts | 61° |
| 2026-05-04 18:47 | 18.16899 | -71.05887 | 7028 ft | 111 kts | 61° |
| 2026-05-04 18:47 | 18.17335 | -71.05211 | 7028 ft | 111 kts | 61° |
| 2026-05-04 18:47 | 18.17770 | -71.04536 | 7028 ft | 111 kts | 61° |
| 2026-05-04 18:47 | 18.18205 | -71.03862 | 7028 ft | 111 kts | 61° |
| 2026-05-04 18:48 | 18.18637 | -71.03194 | 7028 ft | 111 kts | 61° |
| 2026-05-04 18:48 | 18.19049 | -71.02497 | 7033 ft | 109 kts | 71° |
| 2026-05-04 18:48 | 18.19282 | -71.01752 | 7029 ft | 108 kts | 79° |
| 2026-05-04 18:48 | 18.19496 | -71.00982 | 7025 ft | 108 kts | 79° |
| 2026-05-04 18:49 | 18.19700 | -71.00230 | 7026 ft | 108 kts | 79° |
| 2026-05-04 18:49 | 18.19906 | -70.99469 | 7027 ft | 108 kts | 79° |
| 2026-05-04 18:49 | 18.20112 | -70.98709 | 7028 ft | 108 kts | 79° |
| 2026-05-04 18:49 | 18.20319 | -70.97947 | 7028 ft | 108 kts | 79° |
| 2026-05-04 18:50 | 18.20525 | -70.97185 | 7028 ft | 108 kts | 79° |
| 2026-05-04 18:50 | 18.20732 | -70.96422 | 7028 ft | 108 kts | 79° |
| 2026-05-04 18:50 | 18.20939 | -70.95659 | 7028 ft | 108 kts | 79° |
| 2026-05-04 18:50 | 18.21145 | -70.94898 | 7028 ft | 108 kts | 79° |
| 2026-05-04 18:51 | 18.21349 | -70.94145 | 7028 ft | 108 kts | 79° |
| 2026-05-04 18:51 | 18.21556 | -70.93381 | 7028 ft | 108 kts | 79° |
| 2026-05-04 18:51 | 18.21763 | -70.92620 | 7028 ft | 108 kts | 79° |
| 2026-05-04 18:51 | 18.21970 | -70.91859 | 7028 ft | 108 kts | 79° |
| 2026-05-04 18:52 | 18.22177 | -70.91095 | 7028 ft | 108 kts | 79° |
| 2026-05-04 18:52 | 18.22384 | -70.90333 | 7028 ft | 108 kts | 79° |
| 2026-05-04 18:52 | 18.22592 | -70.89567 | 7028 ft | 108 kts | 79° |
| 2026-05-04 18:52 | 18.22797 | -70.88811 | 7028 ft | 108 kts | 79° |
| 2026-05-04 18:53 | 18.23004 | -70.88050 | 7028 ft | 108 kts | 79° |
| 2026-05-04 18:53 | 18.23212 | -70.87286 | 7028 ft | 108 kts | 79° |
| 2026-05-04 18:53 | 18.23419 | -70.86525 | 7028 ft | 108 kts | 79° |
| 2026-05-04 18:53 | 18.23627 | -70.85760 | 7028 ft | 108 kts | 79° |
| 2026-05-04 18:54 | 18.23835 | -70.84995 | 7028 ft | 108 kts | 79° |
| 2026-05-04 18:54 | 18.24043 | -70.84232 | 7028 ft | 108 kts | 79° |
| 2026-05-04 18:54 | 18.24248 | -70.83478 | 7028 ft | 108 kts | 79° |
| 2026-05-04 18:54 | 18.24455 | -70.82716 | 7028 ft | 108 kts | 79° |
| 2026-05-04 18:55 | 18.24663 | -70.81953 | 7028 ft | 108 kts | 79° |
| 2026-05-04 18:55 | 18.25079 | -70.80424 | 7028 ft | 108 kts | 79° |
| 2026-05-04 18:55 | 18.25287 | -70.79663 | 7028 ft | 108 kts | 79° |
| 2026-05-04 18:56 | 18.25495 | -70.78898 | 7028 ft | 109 kts | 79° |
| 2026-05-04 18:56 | 18.25703 | -70.78136 | 7028 ft | 109 kts | 79° |
| 2026-05-04 18:56 | 18.25911 | -70.77372 | 7028 ft | 109 kts | 79° |
| 2026-05-04 18:56 | 18.26119 | -70.76607 | 7028 ft | 109 kts | 79° |
| 2026-05-04 18:57 | 18.26325 | -70.75851 | 7028 ft | 109 kts | 79° |
| 2026-05-04 18:57 | 18.26534 | -70.75088 | 7028 ft | 109 kts | 79° |
| 2026-05-04 18:57 | 18.26742 | -70.74323 | 7028 ft | 109 kts | 79° |
| 2026-05-04 18:57 | 18.26951 | -70.73558 | 7028 ft | 109 kts | 79° |
| 2026-05-04 18:58 | 18.27160 | -70.72793 | 7028 ft | 109 kts | 79° |
| 2026-05-04 18:58 | 18.27369 | -70.72027 | 7028 ft | 109 kts | 79° |
| 2026-05-04 18:58 | 18.27577 | -70.71263 | 7028 ft | 109 kts | 79° |
| 2026-05-04 18:58 | 18.27785 | -70.70500 | 7028 ft | 109 kts | 79° |
| 2026-05-04 18:59 | 18.27994 | -70.69736 | 7028 ft | 109 kts | 79° |
| 2026-05-04 18:59 | 18.28203 | -70.68971 | 7028 ft | 109 kts | 79° |
| 2026-05-04 18:59 | 18.28411 | -70.68208 | 7028 ft | 109 kts | 79° |
| 2026-05-04 18:59 | 18.28620 | -70.67442 | 7028 ft | 109 kts | 79° |
| 2026-05-04 19:00 | 18.28826 | -70.66689 | 7028 ft | 109 kts | 79° |
| 2026-05-04 19:00 | 18.29036 | -70.65920 | 7028 ft | 109 kts | 79° |
| 2026-05-04 19:00 | 18.29245 | -70.65156 | 7028 ft | 109 kts | 79° |
| 2026-05-04 19:00 | 18.29454 | -70.64390 | 7026 ft | 109 kts | 79° |
| 2026-05-04 19:01 | 18.29663 | -70.63626 | 7029 ft | 109 kts | 79° |
| 2026-05-04 19:01 | 18.29874 | -70.62858 | 7008 ft | 112 kts | 79° |
| 2026-05-04 19:01 | 18.30091 | -70.62044 | 6809 ft | 118 kts | 79° |
| 2026-05-04 19:01 | 18.30311 | -70.61205 | 6562 ft | 119 kts | 79° |
| 2026-05-04 19:02 | 18.30528 | -70.60373 | 6317 ft | 119 kts | 79° |
| 2026-05-04 19:02 | 18.30751 | -70.59522 | 6067 ft | 119 kts | 79° |
| 2026-05-04 19:02 | 18.30969 | -70.58689 | 5823 ft | 119 kts | 79° |
| 2026-05-04 19:02 | 18.31191 | -70.57845 | 5575 ft | 120 kts | 79° |
| 2026-05-04 19:03 | 18.31413 | -70.57000 | 5328 ft | 120 kts | 79° |
| 2026-05-04 19:03 | 18.31635 | -70.56157 | 5081 ft | 120 kts | 79° |
| 2026-05-04 19:03 | 18.31797 | -70.55309 | 4836 ft | 118 kts | 87° |
| 2026-05-04 19:03 | 18.31883 | -70.54443 | 4586 ft | 118 kts | 89° |
| 2026-05-04 19:04 | 18.31933 | -70.53868 | 4421 ft | 118 kts | 89° |
| 2026-05-04 19:04 | 18.32006 | -70.53005 | 4173 ft | 118 kts | 89° |
| 2026-05-04 19:04 | 18.32077 | -70.52156 | 4019 ft | 114 kts | 89° |
| 2026-05-04 19:04 | 18.32149 | -70.51335 | 3989 ft | 111 kts | 89° |
| 2026-05-04 19:05 | 18.32222 | -70.50532 | 4007 ft | 110 kts | 89° |
| 2026-05-04 19:05 | 18.32296 | -70.49729 | 4025 ft | 110 kts | 89° |
| 2026-05-04 19:05 | 18.32369 | -70.48926 | 4031 ft | 110 kts | 89° |
| 2026-05-04 19:05 | 18.32442 | -70.48120 | 4030 ft | 111 kts | 89° |
| 2026-05-04 19:06 | 18.32516 | -70.47313 | 4028 ft | 111 kts | 89° |
| 2026-05-04 19:06 | 18.32588 | -70.46507 | 4027 ft | 111 kts | 89° |
| 2026-05-04 19:06 | 18.32660 | -70.45711 | 4027 ft | 111 kts | 89° |
| 2026-05-04 19:06 | 18.32733 | -70.44904 | 4028 ft | 111 kts | 89° |
| 2026-05-04 19:07 | 18.32806 | -70.44095 | 4028 ft | 111 kts | 89° |
| 2026-05-04 19:07 | 18.32879 | -70.43286 | 4028 ft | 111 kts | 89° |
| 2026-05-04 19:07 | 18.32952 | -70.42480 | 4028 ft | 111 kts | 89° |
| 2026-05-04 19:07 | 18.33025 | -70.41673 | 4028 ft | 111 kts | 89° |
| 2026-05-04 19:08 | 18.33098 | -70.40864 | 4028 ft | 111 kts | 89° |
| 2026-05-04 19:08 | 18.33170 | -70.40061 | 4028 ft | 111 kts | 89° |
| 2026-05-04 19:08 | 18.33244 | -70.39247 | 4028 ft | 111 kts | 89° |
| 2026-05-04 19:08 | 18.33317 | -70.38438 | 4028 ft | 111 kts | 89° |
| 2026-05-04 19:09 | 18.33389 | -70.37641 | 4028 ft | 111 kts | 89° |
| 2026-05-04 19:09 | 18.33462 | -70.36833 | 4028 ft | 111 kts | 89° |
| 2026-05-04 19:09 | 18.33535 | -70.36025 | 4028 ft | 111 kts | 89° |
| 2026-05-04 19:09 | 18.33608 | -70.35218 | 4028 ft | 111 kts | 89° |
| 2026-05-04 19:10 | 18.33681 | -70.34409 | 4028 ft | 111 kts | 89° |
| 2026-05-04 19:10 | 18.33754 | -70.33600 | 4028 ft | 111 kts | 89° |
| 2026-05-04 19:10 | 18.33827 | -70.32791 | 4028 ft | 111 kts | 89° |
| 2026-05-04 19:10 | 18.33900 | -70.31983 | 4028 ft | 111 kts | 89° |
| 2026-05-04 19:11 | 18.33974 | -70.31175 | 4028 ft | 111 kts | 89° |
| 2026-05-04 19:11 | 18.34047 | -70.30364 | 4028 ft | 111 kts | 89° |
| 2026-05-04 19:11 | 18.34120 | -70.29552 | 4028 ft | 111 kts | 89° |
| 2026-05-04 19:11 | 18.34193 | -70.28754 | 4028 ft | 111 kts | 89° |
| 2026-05-04 19:12 | 18.34267 | -70.27936 | 4028 ft | 111 kts | 89° |
| 2026-05-04 19:12 | 18.34413 | -70.26327 | 4028 ft | 111 kts | 89° |
| 2026-05-04 19:12 | 18.34486 | -70.25519 | 4028 ft | 111 kts | 89° |
| 2026-05-04 19:13 | 18.34560 | -70.24709 | 4028 ft | 111 kts | 89° |
| 2026-05-04 19:13 | 18.34634 | -70.23901 | 4028 ft | 111 kts | 89° |
| 2026-05-04 19:13 | 18.34707 | -70.23091 | 4028 ft | 111 kts | 89° |
| 2026-05-04 19:13 | 18.34781 | -70.22282 | 4028 ft | 111 kts | 89° |
| 2026-05-04 19:14 | 18.34855 | -70.21472 | 4028 ft | 111 kts | 89° |
| 2026-05-04 19:14 | 18.34928 | -70.20662 | 4028 ft | 111 kts | 89° |
| 2026-05-04 19:14 | 18.35002 | -70.19852 | 4028 ft | 111 kts | 89° |
| 2026-05-04 19:14 | 18.35076 | -70.19041 | 4028 ft | 111 kts | 89° |
| 2026-05-04 19:15 | 18.35151 | -70.18213 | 3928 ft | 117 kts | 89° |
| 2026-05-04 19:15 | 18.35224 | -70.17356 | 3704 ft | 119 kts | 90° |
| 2026-05-04 19:15 | 18.35299 | -70.16484 | 3458 ft | 120 kts | 89° |
| 2026-05-04 19:15 | 18.35377 | -70.15609 | 3210 ft | 120 kts | 89° |
| 2026-05-04 19:16 | 18.35457 | -70.14732 | 2961 ft | 120 kts | 89° |
| 2026-05-04 19:16 | 18.35536 | -70.13861 | 2714 ft | 120 kts | 89° |
| 2026-05-04 19:16 | 18.35613 | -70.12988 | 2467 ft | 120 kts | 89° |
| 2026-05-04 19:16 | 18.35686 | -70.12127 | 2224 ft | 120 kts | 89° |
| 2026-05-04 19:17 | 18.35757 | -70.11242 | 1975 ft | 121 kts | 89° |
| 2026-05-04 19:17 | 18.35824 | -70.10361 | 1728 ft | 121 kts | 89° |
| 2026-05-04 19:17 | 18.35887 | -70.09482 | 1540 ft | 119 kts | 89° |
| 2026-05-04 19:17 | 18.35995 | -70.08632 | 1489 ft | 116 kts | 82° |
| 2026-05-04 19:18 | 18.36242 | -70.07819 | 1500 ft | 117 kts | 72° |
| 2026-05-04 19:18 | 18.36576 | -70.07038 | 1519 ft | 117 kts | 70° |
| 2026-05-04 19:18 | 18.36922 | -70.06258 | 1528 ft | 118 kts | 69° |
| 2026-05-04 19:18 | 18.37273 | -70.05475 | 1530 ft | 118 kts | 69° |
| 2026-05-04 19:19 | 18.37620 | -70.04700 | 1529 ft | 118 kts | 69° |
| 2026-05-04 19:19 | 18.37970 | -70.03918 | 1528 ft | 118 kts | 69° |
| 2026-05-04 19:19 | 18.38318 | -70.03139 | 1527 ft | 118 kts | 69° |
| 2026-05-04 19:19 | 18.38698 | -70.02369 | 1520 ft | 119 kts | 60° |
| 2026-05-04 19:20 | 18.39365 | -70.01853 | 1532 ft | 122 kts | 32° |
| 2026-05-04 19:20 | 18.40067 | -70.01335 | 1572 ft | 125 kts | 46° |
| 2026-05-04 19:20 | 18.40698 | -70.00714 | 1519 ft | 123 kts | 49° |
| 2026-05-04 19:20 | 18.41251 | -70.00038 | 1422 ft | 125 kts | 61° |
| 2026-05-04 19:21 | 18.41690 | -69.99258 | 1205 ft | 122 kts | 60° |
| 2026-05-04 19:21 | 18.42161 | -69.98511 | 1024 ft | 120 kts | 59° |
| 2026-05-04 19:21 | 18.42607 | -69.97762 | 827 ft | 119 kts | 66° |
| 2026-05-04 19:21 | 18.43034 | -69.97008 | 653 ft | 122 kts | 66° |
| 2026-05-04 19:22 | 18.43367 | -69.96244 | 563 ft | 115 kts | 73° |
| 2026-05-04 19:22 | 18.43668 | -69.95445 | 452 ft | 117 kts | 76° |
| 2026-05-04 19:22 | 18.43916 | -69.94638 | 373 ft | 114 kts | 85° |
| 2026-05-04 19:22 | 18.43568 | -69.94330 | 283 ft | 81 kts | 219° |
| 2026-05-04 19:23 | 18.43392 | -69.94623 | 170 ft | 23 kts | 246° |
| 2026-05-04 19:23 | 18.43349 | -69.94729 | 64 ft | 6 kts | 224° |
| 2026-05-04 19:23 | 18.43360 | -69.94671 | 68 ft | 6 kts | 83° |
| 2026-05-04 19:23 | 18.43369 | -69.94663 | 56 ft | 0 kts | 91° |
| 2026-05-04 19:24 | 18.43369 | -69.94662 | 56 ft | 0 kts | 91° |
| 2026-05-04 19:27 | 18.43373 | -69.94663 | 62 ft | 6 kts | 133° |
| 2026-05-04 19:27 | 18.43457 | -69.94390 | 230 ft | 90 kts | 32° |
| 2026-05-04 19:27 | 18.44256 | -69.94506 | 404 ft | 132 kts | 350° |
| 2026-05-04 19:28 | 18.45177 | -69.94738 | 539 ft | 137 kts | 349° |
| 2026-05-04 19:28 | 18.46087 | -69.94982 | 793 ft | 135 kts | 350° |
| 2026-05-04 19:28 | 18.46399 | -69.95062 | 862 ft | 139 kts | 351° |
| 2026-05-04 19:29 | 18.47237 | -69.95288 | 969 ft | 140 kts | 343° |
| 2026-05-04 19:30 | 18.48192 | -69.95605 | 912 ft | 140 kts | 344° |
| 2026-05-04 19:30 | 18.49134 | -69.95906 | 952 ft | 144 kts | 349° |
| 2026-05-04 19:30 | 18.50082 | -69.96178 | 1025 ft | 139 kts | 347° |
| 2026-05-04 19:30 | 18.51028 | -69.96446 | 1061 ft | 142 kts | 349° |
| 2026-05-04 19:31 | 18.51798 | -69.96671 | 1101 ft | 141 kts | 351° |
| 2026-05-04 19:31 | 18.52257 | -69.96795 | 1053 ft | 145 kts | 347° |
| 2026-05-04 19:31 | 18.53232 | -69.97035 | 930 ft | 142 kts | 356° |
| 2026-05-04 19:32 | 18.54200 | -69.97148 | 949 ft | 136 kts | 358° |
| 2026-05-04 19:32 | 18.55162 | -69.97205 | 961 ft | 138 kts | 3° |
| 2026-05-04 19:32 | 18.56139 | -69.97248 | 893 ft | 140 kts | 7° |
| 2026-05-04 19:32 | 18.57114 | -69.97229 | 883 ft | 142 kts | 4° |
| 2026-05-04 19:33 | 18.58106 | -69.97227 | 765 ft | 142 kts | 3° |
| 2026-05-04 19:33 | 18.59037 | -69.97477 | 724 ft | 137 kts | 312° |
| 2026-05-04 19:33 | 18.58907 | -69.98279 | 428 ft | 111 kts | 191° |
| 2026-05-04 19:33 | 18.58415 | -69.98325 | 310 ft | 45 kts | 184° |
| 2026-05-04 19:34 | 18.58168 | -69.98331 | 259 ft | 34 kts | 178° |
| 2026-05-04 19:34 | 18.57954 | -69.98335 | 178 ft | 19 kts | 181° |
| 2026-05-04 19:34 | 18.57863 | -69.98304 | 133 ft | 11 kts | 98° |
| 2026-05-04 19:34 | 18.57852 | -69.98258 | 96 ft | 4 kts | 102° |
| 2026-05-04 19:35 | 18.57852 | -69.98251 | 85 ft | 0 kts | 110° |